createdAt,value
2022-11-28T00:01:37.027Z,8.50
2022-11-28T00:04:05.031Z,8.40
2022-11-28T00:06:31.858Z,8.40
2022-11-28T00:09:00.313Z,8.40
2022-11-28T00:11:27.862Z,8.40
2022-11-28T00:13:54.691Z,8.40
2022-11-28T00:16:22.667Z,8.40
2022-11-28T00:18:51.684Z,8.30
2022-11-28T00:21:19.487Z,8.30
2022-11-28T00:23:47.868Z,8.30
2022-11-28T00:26:20.515Z,8.20
2022-11-28T00:28:47.868Z,8.30
2022-11-28T00:31:17.757Z,8.20
2022-11-28T00:33:45.048Z,8.20
2022-11-28T00:36:12.436Z,8.20
2022-11-28T00:38:39.794Z,8.20
2022-11-28T00:41:09.952Z,8.20
2022-11-28T00:43:37.415Z,8.20
2022-11-28T00:46:04.639Z,8.20
2022-11-28T00:48:34.455Z,8.20
2022-11-28T00:51:08.352Z,8.30
2022-11-28T00:53:35.705Z,8.30
2022-11-28T00:56:05.553Z,8.30
2022-11-28T00:58:33.499Z,8.30
2022-11-28T01:01:01.007Z,8.30
2022-11-28T01:03:27.926Z,8.40
2022-11-28T01:05:54.710Z,8.30
2022-11-28T01:08:21.431Z,8.30
2022-11-28T01:10:48.193Z,8.30
2022-11-28T01:13:15.174Z,8.30
2022-11-28T01:15:42.633Z,8.30
2022-11-28T01:18:09.752Z,8.30
2022-11-28T01:20:36.771Z,8.20
2022-11-28T01:23:03.570Z,8.20
2022-11-28T01:25:30.428Z,8.20
2022-11-28T01:27:57.280Z,8.20
2022-11-28T01:30:24.431Z,8.20
2022-11-28T01:32:51.123Z,8.20
2022-11-28T01:35:17.884Z,8.20
2022-11-28T01:37:44.817Z,8.20
2022-11-28T01:40:13.008Z,8.20
2022-11-28T01:42:39.950Z,8.20
2022-11-28T01:45:26.965Z,8.20
2022-11-28T01:47:56.735Z,8.20
2022-11-28T01:50:24.519Z,8.20
2022-11-28T01:52:55.390Z,8.10
2022-11-28T01:55:26.015Z,8.10
2022-11-28T01:57:55.345Z,8.10
2022-11-28T02:00:23.072Z,8.00
2022-11-28T02:02:54.636Z,8.10
2022-11-28T02:05:22.116Z,8.10
2022-11-28T02:07:49.942Z,8.10
2022-11-28T02:10:26.000Z,8.10
2022-11-28T02:13:21.295Z,8.10
2022-11-28T02:16:08.055Z,8.10
2022-11-28T02:19:13.594Z,8.10
2022-11-28T02:22:02.496Z,8.10
2022-11-28T02:24:54.322Z,8.00
2022-11-28T02:27:51.114Z,8.00
2022-11-28T02:30:20.748Z,8.00
2022-11-28T02:33:02.684Z,8.00
2022-11-28T02:35:55.869Z,8.00
2022-11-28T02:38:57.384Z,7.90
2022-11-28T02:41:39.359Z,8.00
2022-11-28T02:44:12.525Z,8.00
2022-11-28T02:46:52.517Z,8.00
2022-11-28T02:49:23.055Z,8.00
2022-11-28T02:51:58.194Z,8.00
2022-11-28T02:54:26.605Z,8.00
2022-11-28T02:56:55.273Z,8.00
2022-11-28T02:59:44.587Z,8.10
2022-11-28T03:02:25.860Z,8.10
2022-11-28T03:05:19.553Z,8.10
2022-11-28T03:08:12.054Z,8.10
2022-11-28T03:10:53.491Z,8.20
2022-11-28T03:13:39.639Z,8.20
2022-11-28T03:16:24.684Z,8.20
2022-11-28T03:19:17.663Z,8.20
2022-11-28T03:22:15.336Z,8.20
2022-11-28T03:24:47.224Z,8.20
2022-11-28T03:27:36.215Z,8.20
2022-11-28T03:30:19.598Z,8.30
2022-11-28T03:32:51.649Z,8.30
2022-11-28T03:35:21.968Z,8.30
2022-11-28T03:37:56.225Z,8.30
2022-11-28T03:40:27.948Z,8.30
2022-11-28T03:43:11.436Z,8.20
2022-11-28T03:45:46.842Z,8.20
2022-11-28T03:48:20.192Z,8.30
2022-11-28T03:50:53.737Z,8.20
2022-11-28T03:53:45.945Z,8.20
2022-11-28T03:56:29.272Z,8.30
2022-11-28T03:59:04.600Z,8.30
2022-11-28T04:01:51.023Z,8.30
2022-11-28T04:04:40.649Z,8.30
2022-11-28T04:07:17.225Z,8.30
2022-11-28T04:09:48.830Z,8.30
2022-11-28T04:12:37.199Z,8.30
2022-11-28T04:15:11.975Z,8.20
2022-11-28T04:17:50.179Z,8.20
2022-11-28T04:20:35.543Z,8.20
2022-11-28T04:23:09.330Z,8.20
2022-11-28T04:25:40.201Z,8.20
2022-11-28T04:28:13.513Z,8.10
2022-11-28T04:30:44.627Z,8.20
2022-11-28T04:33:14.424Z,8.20
2022-11-28T04:35:50.381Z,8.20
2022-11-28T04:38:18.880Z,8.20
2022-11-28T04:41:00.357Z,8.20
2022-11-28T04:43:37.902Z,8.20
2022-11-28T04:46:27.165Z,8.20
2022-11-28T04:48:54.544Z,8.30
2022-11-28T04:51:27.024Z,8.30
2022-11-28T04:54:18.773Z,8.30
2022-11-28T04:57:00.859Z,8.40
2022-11-28T04:59:30.480Z,8.40
2022-11-28T05:02:01.694Z,8.50
2022-11-28T05:04:28.552Z,8.60
2022-11-28T05:07:04.831Z,8.60
2022-11-28T05:09:31.804Z,8.60
2022-11-28T05:11:58.656Z,8.70
2022-11-28T05:14:26.876Z,8.70
2022-11-28T05:16:53.959Z,8.70
2022-11-28T05:19:20.761Z,8.70
2022-11-28T05:21:48.139Z,8.60
2022-11-28T05:24:14.932Z,8.60
2022-11-28T05:26:44.347Z,8.50
2022-11-28T05:29:11.099Z,8.60
2022-11-28T05:31:38.510Z,8.60
2022-11-28T05:34:05.499Z,8.60
2022-11-28T05:36:34.562Z,8.70
2022-11-28T05:39:01.268Z,8.70
2022-11-28T05:41:30.791Z,8.70
2022-11-28T05:44:00.632Z,8.80
2022-11-28T05:46:34.198Z,8.70
2022-11-28T05:49:01.732Z,8.70
2022-11-28T05:51:29.517Z,8.70
2022-11-28T05:53:56.265Z,8.70
2022-11-28T05:56:23.436Z,8.70
2022-11-28T05:58:51.924Z,8.70
2022-11-28T06:01:22.204Z,8.70
2022-11-28T06:03:49.084Z,8.80
2022-11-28T06:06:17.674Z,8.70
2022-11-28T06:08:45.244Z,8.60
2022-11-28T06:11:14.715Z,8.50
2022-11-28T06:13:45.841Z,8.40
2022-11-28T06:16:16.054Z,8.40
2022-11-28T06:18:43.157Z,8.50
2022-11-28T06:21:11.981Z,8.50
2022-11-28T06:23:39.365Z,8.50
2022-11-28T06:26:12.047Z,8.50
2022-11-28T06:28:39.281Z,8.60
2022-11-28T06:31:17.370Z,8.60
2022-11-28T06:33:44.474Z,8.60
2022-11-28T06:36:12.575Z,8.60
2022-11-28T06:38:40.277Z,8.60
2022-11-28T06:41:10.768Z,8.60
2022-11-28T06:43:37.697Z,8.60
2022-11-28T06:46:04.814Z,8.60
2022-11-28T06:48:32.559Z,8.60
2022-11-28T06:51:06.740Z,8.50
2022-11-28T06:53:34.917Z,8.60
2022-11-28T06:56:10.114Z,8.60
2022-11-28T06:58:37.237Z,8.60
2022-11-28T07:01:16.090Z,8.60
2022-11-28T07:03:43.914Z,8.60
2022-11-28T07:06:13.401Z,8.50
2022-11-28T07:08:40.917Z,8.50
2022-11-28T07:11:13.672Z,8.50
2022-11-28T07:13:42.151Z,8.50
2022-11-28T07:16:16.264Z,8.40
2022-11-28T07:18:44.224Z,8.40
2022-11-28T07:21:11.601Z,8.40
2022-11-28T07:23:38.365Z,8.40
2022-11-28T07:26:05.883Z,8.40
2022-11-28T07:28:52.040Z,8.40
2022-11-28T07:31:21.536Z,8.40
2022-11-28T07:33:50.180Z,8.40
2022-11-28T07:36:23.238Z,8.40
2022-11-28T07:38:55.381Z,8.40
2022-11-28T07:41:26.500Z,8.40
2022-11-28T07:43:56.626Z,8.50
2022-11-28T07:46:24.593Z,8.50
2022-11-28T07:48:51.775Z,8.50
2022-11-28T07:51:27.421Z,8.60
2022-11-28T07:53:54.708Z,8.60
2022-11-28T07:56:24.909Z,8.60
2022-11-28T07:58:51.914Z,8.60
2022-11-28T08:01:24.467Z,8.70
2022-11-28T08:03:53.813Z,8.70
2022-11-28T08:06:26.852Z,8.70
2022-11-28T08:08:54.633Z,8.80
2022-11-28T08:11:24.243Z,8.80
2022-11-28T08:13:53.832Z,8.80
2022-11-28T08:16:26.840Z,8.80
2022-11-28T08:18:54.887Z,8.80
2022-11-28T08:21:27.413Z,8.80
2022-11-28T08:23:56.090Z,8.80
2022-11-28T08:26:29.079Z,8.80
2022-11-28T08:28:59.023Z,8.80
2022-11-28T08:31:32.387Z,8.80
2022-11-28T08:34:02.277Z,8.80
2022-11-28T08:36:29.742Z,8.70
2022-11-28T08:39:16.625Z,8.80
2022-11-28T08:41:44.087Z,8.80
2022-11-28T08:44:11.155Z,8.80
2022-11-28T08:46:37.960Z,8.80
2022-11-28T08:49:04.978Z,8.80
2022-11-28T08:51:33.348Z,8.90
2022-11-28T08:54:00.408Z,8.90
2022-11-28T08:56:27.988Z,8.90
2022-11-28T08:58:55.431Z,8.90
2022-11-28T09:01:24.703Z,8.90
2022-11-28T09:03:52.603Z,8.90
2022-11-28T09:06:21.166Z,8.90
2022-11-28T09:08:49.079Z,8.90
2022-11-28T09:11:19.414Z,9.00
2022-11-28T09:13:46.762Z,8.90
2022-11-28T09:16:14.539Z,9.00
2022-11-28T09:18:41.696Z,9.10
2022-11-28T09:21:11.659Z,9.10
2022-11-28T09:23:41.080Z,9.10
2022-11-28T09:26:26.773Z,9.10
2022-11-28T09:28:54.028Z,9.10
2022-11-28T09:31:21.262Z,9.10
2022-11-28T09:33:49.581Z,9.10
2022-11-28T09:36:19.238Z,9.10
2022-11-28T09:38:46.744Z,9.20
2022-11-28T09:41:28.598Z,9.20
2022-11-28T09:44:37.253Z,9.30
2022-11-28T09:47:11.674Z,9.30
2022-11-28T09:49:51.744Z,9.30
2022-11-28T09:52:43.171Z,9.30
2022-11-28T09:55:25.601Z,9.30
2022-11-28T09:57:54.150Z,9.30
2022-11-28T10:00:23.756Z,9.30
2022-11-28T10:03:32.679Z,9.30
2022-11-28T10:06:24.444Z,9.30
2022-11-28T10:09:15.696Z,9.40
2022-11-28T10:12:20.082Z,9.40
2022-11-28T10:14:58.877Z,9.40
2022-11-28T10:17:37.608Z,9.40
2022-11-28T10:20:12.308Z,9.40
2022-11-28T10:22:51.815Z,9.40
2022-11-28T10:25:32.803Z,9.40
2022-11-28T10:27:59.659Z,9.40
2022-11-28T10:30:33.781Z,9.40
2022-11-28T10:33:03.933Z,9.40
2022-11-28T10:35:33.596Z,9.40
2022-11-28T10:38:00.377Z,9.40
2022-11-28T10:40:55.291Z,9.40
2022-11-28T10:43:47.419Z,9.40
2022-11-28T10:46:51.809Z,9.40
2022-11-28T10:49:53.670Z,9.50
2022-11-28T10:52:44.504Z,9.50
2022-11-28T10:55:17.283Z,9.50
2022-11-28T10:58:18.946Z,9.50
2022-11-28T11:00:49.612Z,9.50
2022-11-28T11:03:19.293Z,9.50
2022-11-28T11:05:45.983Z,9.60
2022-11-28T11:08:28.428Z,9.60
2022-11-28T11:11:06.140Z,9.70
2022-11-28T11:14:00.652Z,9.70
2022-11-28T11:16:52.362Z,9.70
2022-11-28T11:19:29.940Z,9.80
2022-11-28T11:22:21.489Z,9.80
2022-11-28T11:25:20.219Z,9.80
2022-11-28T11:27:50.381Z,9.80
2022-11-28T11:30:27.128Z,9.80
2022-11-28T11:32:55.930Z,9.70
2022-11-28T11:35:26.492Z,9.80
2022-11-28T11:37:55.072Z,9.70
2022-11-28T11:40:29.440Z,9.80
2022-11-28T11:42:59.583Z,9.80
2022-11-28T11:45:28.521Z,9.90
2022-11-28T11:47:55.611Z,9.80
2022-11-28T11:50:25.454Z,9.90
2022-11-28T11:53:17.067Z,9.80
2022-11-28T11:55:48.931Z,9.90
2022-11-28T11:58:20.428Z,9.90
2022-11-28T12:00:48.444Z,9.90
2022-11-28T12:03:56.919Z,9.90
2022-11-28T12:06:29.313Z,10.00
2022-11-28T12:09:23.457Z,10.00
2022-11-28T12:11:57.271Z,10.00
2022-11-28T12:14:32.616Z,10.10
2022-11-28T12:17:46.788Z,10.10
2022-11-28T12:20:44.790Z,10.10
2022-11-28T12:23:22.383Z,10.10
2022-11-28T12:25:57.485Z,10.10
2022-11-28T12:28:45.965Z,10.10
2022-11-28T12:31:43.219Z,10.10
2022-11-28T12:34:29.367Z,10.10
2022-11-28T12:37:55.217Z,10.20
2022-11-28T12:40:24.162Z,10.20
2022-11-28T12:43:15.759Z,10.20
2022-11-28T12:46:36.644Z,10.30
2022-11-28T12:49:10.103Z,10.20
2022-11-28T12:52:18.305Z,10.30
2022-11-28T12:55:01.746Z,10.30
2022-11-28T12:57:48.337Z,10.30
2022-11-28T13:00:22.923Z,10.30
2022-11-28T13:03:04.718Z,10.30
2022-11-28T13:06:11.701Z,10.40
2022-11-28T13:08:57.211Z,10.40
2022-11-28T13:11:43.054Z,10.50
2022-11-28T13:14:38.935Z,10.50
2022-11-28T13:17:27.731Z,10.50
2022-11-28T13:20:19.477Z,10.50
2022-11-28T13:23:37.542Z,10.50
2022-11-28T13:26:10.958Z,10.50
2022-11-28T13:29:06.891Z,10.50
2022-11-28T13:31:40.714Z,10.60
2022-11-28T13:34:14.959Z,10.60
2022-11-28T13:39:59.795Z,10.60
2022-11-28T13:43:03.397Z,10.60
2022-11-28T13:45:39.191Z,10.70
2022-11-28T13:49:05.931Z,10.70
2022-11-28T13:51:32.551Z,10.70
2022-11-28T13:54:18.670Z,10.70
2022-11-28T13:57:07.002Z,10.70
2022-11-28T13:59:34.779Z,10.70
2022-11-28T14:02:05.484Z,10.80
2022-11-28T14:04:32.939Z,10.80
2022-11-28T14:07:04.284Z,10.80
2022-11-28T14:10:02.934Z,10.80
2022-11-28T14:12:47.585Z,10.90
2022-11-28T14:15:46.640Z,10.90
2022-11-28T14:18:56.151Z,10.90
2022-11-28T14:21:42.672Z,10.90
2022-11-28T14:24:21.285Z,11.00
2022-11-28T14:26:57.577Z,11.00
2022-11-28T14:29:30.904Z,11.00
2022-11-28T14:32:28.529Z,11.00
2022-11-28T14:34:48.379Z,11.00
2022-11-28T14:37:27.368Z,11.00
2022-11-28T14:39:56.195Z,11.00
2022-11-28T14:42:58.141Z,11.00
2022-11-28T14:45:34.790Z,11.00
2022-11-28T14:48:23.633Z,11.00
2022-11-28T14:51:00.556Z,11.00
2022-11-28T14:53:37.035Z,11.00
2022-11-28T14:56:28.071Z,11.00
2022-11-28T14:59:04.235Z,11.00
2022-11-28T15:01:57.745Z,11.00
2022-11-28T15:04:52.359Z,11.10
2022-11-28T15:07:47.068Z,11.10
2022-11-28T15:10:16.907Z,11.10
2022-11-28T15:13:22.829Z,11.10
2022-11-28T15:15:51.088Z,11.10
2022-11-28T15:18:20.394Z,11.10
2022-11-28T15:20:55.073Z,11.10
2022-11-28T15:23:29.289Z,11.20
2022-11-28T15:25:58.112Z,11.20
2022-11-28T15:28:28.395Z,11.20
2022-11-28T15:30:57.393Z,11.20
2022-11-28T15:33:26.131Z,11.20
2022-11-28T15:36:24.692Z,11.20
2022-11-28T15:38:51.659Z,11.20
2022-11-28T15:41:25.488Z,11.30
2022-11-28T15:43:56.035Z,11.30
2022-11-28T15:46:34.074Z,11.30
2022-11-28T15:49:05.589Z,11.30
2022-11-28T15:51:35.806Z,11.30
2022-11-28T15:54:13.394Z,11.40
2022-11-28T15:56:56.535Z,11.40
2022-11-28T15:59:23.294Z,11.40
2022-11-28T16:01:53.573Z,11.40
2022-11-28T16:04:24.587Z,11.40
2022-11-28T16:06:56.072Z,11.40
2022-11-28T16:09:38.795Z,11.40
2022-11-28T16:12:14.190Z,11.40
2022-11-28T16:14:45.060Z,11.40
2022-11-28T16:17:26.552Z,11.40
2022-11-28T16:19:55.433Z,11.50
2022-11-28T16:22:27.244Z,11.40
2022-11-28T16:24:55.462Z,11.40
2022-11-28T16:27:38.631Z,11.40
2022-11-28T16:30:27.891Z,11.50
2022-11-28T16:32:56.730Z,11.50
2022-11-28T16:35:39.022Z,11.50
2022-11-28T16:38:22.665Z,11.50
2022-11-28T16:40:50.678Z,11.50
2022-11-28T16:43:42.789Z,11.50
2022-11-28T16:46:20.601Z,11.50
2022-11-28T16:49:00.996Z,11.50
2022-11-28T16:51:32.818Z,11.50
2022-11-28T16:54:20.493Z,11.60
2022-11-28T16:56:47.921Z,11.50
2022-11-28T16:59:20.092Z,11.50
2022-11-28T17:01:53.250Z,11.50
2022-11-28T17:04:28.749Z,11.50
2022-11-28T17:06:58.978Z,11.50
2022-11-28T17:09:25.729Z,11.50
2022-11-28T17:12:06.031Z,11.50
2022-11-28T17:14:34.040Z,11.50
2022-11-28T17:17:01.004Z,11.60
2022-11-28T17:19:30.722Z,11.60
2022-11-28T17:21:59.640Z,11.60
2022-11-28T17:24:31.947Z,11.60
2022-11-28T17:26:58.764Z,11.60
2022-11-28T17:29:25.529Z,11.60
2022-11-28T17:31:55.290Z,11.60
2022-11-28T17:34:25.561Z,11.70
2022-11-28T17:36:52.874Z,11.70
2022-11-28T17:39:20.852Z,11.70
2022-11-28T17:41:49.511Z,11.70
2022-11-28T17:44:27.404Z,11.80
2022-11-28T17:46:55.578Z,11.70
2022-11-28T17:49:23.722Z,11.70
2022-11-28T17:51:52.804Z,11.70
2022-11-28T17:54:21.673Z,11.70
2022-11-28T17:56:50.843Z,11.70
2022-11-28T17:59:20.794Z,11.70
2022-11-28T18:01:48.517Z,11.70
2022-11-28T18:04:16.141Z,11.70
2022-11-28T18:06:48.243Z,11.70
2022-11-28T18:09:15.421Z,11.70
2022-11-28T18:11:46.510Z,11.70
2022-11-28T18:14:14.114Z,11.70
2022-11-28T18:16:43.900Z,11.70
2022-11-28T18:19:11.350Z,11.70
2022-11-28T18:21:38.096Z,11.70
2022-11-28T18:24:05.135Z,11.70
2022-11-28T18:26:31.930Z,11.70
2022-11-28T18:28:58.836Z,11.80
2022-11-28T18:31:28.377Z,11.80
2022-11-28T18:34:01.402Z,11.80
2022-11-28T18:36:30.319Z,11.90
2022-11-28T18:38:58.796Z,11.80
2022-11-28T18:41:26.453Z,11.80
2022-11-28T18:44:01.153Z,11.80
2022-11-28T18:46:29.608Z,11.80
2022-11-28T18:48:57.079Z,11.80
2022-11-28T18:51:29.231Z,11.90
2022-11-28T18:53:57.622Z,11.80
2022-11-28T18:56:27.239Z,11.80
2022-11-28T18:58:56.257Z,11.80
2022-11-28T19:01:30.710Z,11.80
2022-11-28T19:04:03.774Z,11.80
2022-11-28T19:06:34.192Z,11.80
2022-11-28T19:09:04.766Z,11.80
2022-11-28T19:11:31.955Z,11.80
2022-11-28T19:13:58.984Z,11.70
2022-11-28T19:16:31.668Z,11.70
2022-11-28T19:19:00.244Z,11.70
2022-11-28T19:21:31.392Z,11.70
2022-11-28T19:23:58.624Z,11.70
2022-11-28T19:26:27.065Z,11.70
2022-11-28T19:28:54.823Z,11.70
2022-11-28T19:31:28.393Z,11.70
2022-11-28T19:34:01.777Z,11.70
2022-11-28T19:36:32.017Z,11.70
2022-11-28T19:39:01.276Z,11.70
2022-11-28T19:41:29.220Z,11.70
2022-11-28T19:43:56.195Z,11.60
2022-11-28T19:46:23.062Z,11.60
2022-11-28T19:48:51.859Z,11.60
2022-11-28T19:51:21.382Z,11.60
2022-11-28T19:53:48.610Z,11.60
2022-11-28T19:56:18.496Z,11.60
2022-11-28T19:58:46.386Z,11.60
2022-11-28T20:01:21.960Z,11.50
2022-11-28T20:03:49.847Z,11.50
2022-11-28T20:06:26.048Z,11.50
2022-11-28T20:08:57.101Z,11.50
2022-11-28T20:11:29.000Z,11.50
2022-11-28T20:14:11.184Z,11.50
2022-11-28T20:16:42.078Z,11.40
2022-11-28T20:19:13.588Z,11.50
2022-11-28T20:21:42.387Z,11.50
2022-11-28T20:24:12.402Z,11.50
2022-11-28T20:26:44.070Z,11.50
2022-11-28T20:29:40.984Z,11.50
2022-11-28T20:32:08.028Z,11.40
2022-11-28T20:34:35.858Z,11.40
2022-11-28T20:37:02.622Z,11.40
2022-11-28T20:39:29.528Z,11.40
2022-11-28T20:41:56.265Z,11.40
2022-11-28T20:44:23.073Z,11.40
2022-11-28T20:46:51.369Z,11.40
2022-11-28T20:49:18.295Z,11.40
2022-11-28T20:51:46.480Z,11.40
2022-11-28T20:54:14.172Z,11.40
2022-11-28T20:57:12.868Z,11.40
2022-11-28T20:59:29.556Z,11.40
2022-11-28T21:01:56.470Z,11.40
2022-11-28T21:04:23.441Z,11.40
2022-11-28T21:06:50.649Z,11.40
2022-11-28T21:09:20.775Z,11.40
2022-11-28T21:11:58.503Z,11.40
2022-11-28T21:14:26.445Z,11.30
2022-11-28T21:16:54.450Z,11.30
2022-11-28T21:19:21.425Z,11.30
2022-11-28T21:21:48.353Z,11.30
2022-11-28T21:24:15.177Z,11.30
2022-11-28T21:26:47.888Z,11.30
2022-11-28T21:29:19.666Z,11.30
2022-11-28T21:31:46.836Z,11.30
2022-11-28T21:34:15.543Z,11.30
2022-11-28T21:36:43.163Z,11.20
2022-11-28T21:39:14.620Z,11.20
2022-11-28T21:41:41.583Z,11.20
2022-11-28T21:44:08.464Z,11.20
2022-11-28T21:46:35.390Z,11.20
2022-11-28T21:49:02.139Z,11.10
2022-11-28T21:51:28.942Z,11.10
2022-11-28T21:53:57.836Z,11.10
2022-11-28T21:56:25.127Z,11.10
2022-11-28T21:58:51.939Z,11.00
2022-11-28T22:01:20.355Z,11.00
2022-11-28T22:03:47.583Z,11.00
2022-11-28T22:06:17.598Z,11.00
2022-11-28T22:08:45.116Z,10.90
2022-11-28T22:11:13.551Z,11.00
2022-11-28T22:13:42.383Z,10.90
2022-11-28T22:16:16.538Z,10.90
2022-11-28T22:18:43.621Z,10.90
2022-11-28T22:21:49.381Z,10.90
2022-11-28T22:23:57.904Z,10.80
2022-11-28T22:26:26.206Z,10.90
2022-11-28T22:28:53.773Z,10.90
2022-11-28T22:31:21.885Z,10.90
2022-11-28T22:33:50.020Z,10.80
2022-11-28T22:36:19.259Z,10.90
2022-11-28T22:38:47.321Z,10.90
2022-11-28T22:41:19.823Z,10.90
2022-11-28T22:43:53.949Z,10.90
2022-11-28T22:46:20.894Z,10.90
2022-11-28T22:48:47.647Z,10.80
2022-11-28T22:51:17.296Z,10.90
2022-11-28T22:53:44.844Z,10.90
2022-11-28T22:56:14.403Z,10.90
2022-11-28T22:58:45.561Z,10.90
2022-11-28T23:01:18.530Z,10.80
2022-11-28T23:03:46.442Z,10.90
2022-11-28T23:06:15.948Z,10.90
2022-11-28T23:08:43.131Z,10.80
2022-11-28T23:11:13.124Z,10.80
2022-11-28T23:13:40.722Z,10.80
2022-11-28T23:16:29.741Z,10.80
2022-11-28T23:19:02.202Z,10.80
2022-11-28T23:21:31.416Z,10.80
2022-11-28T23:23:58.335Z,10.80
2022-11-28T23:26:27.033Z,10.80
2022-11-28T23:28:53.985Z,10.80
2022-11-28T23:31:22.080Z,10.80
2022-11-28T23:33:49.466Z,10.80
2022-11-28T23:36:30.960Z,10.80
2022-11-28T23:38:59.922Z,10.80
2022-11-28T23:41:28.631Z,10.80
2022-11-28T23:43:56.538Z,10.80
2022-11-28T23:46:24.487Z,10.80
2022-11-28T23:48:51.487Z,10.80
2022-11-28T23:51:20.414Z,10.80
2022-11-28T23:53:47.358Z,10.80
2022-11-28T23:56:23.844Z,10.80
2022-11-28T23:58:51.749Z,10.80
